Flight Track Log - Related Links

Times and Time Zones

All times are in EDT time to prevent confusion due to time zone crossing. See the EGF3026 flight status page for this flight to view local times or setup timezone preferences in your user account.


Time Position Orientation Groundspeed Altitude Reporting Facility
EDT Latitude Longitude Course Direction KTS MPH feet Rate Location/Type
Fri 03:05:00 PM 39.2937 -76.4444 56° Northeast  Level Estimated
Fri 03:06:00 PM 39.3331 -76.3695 56° Northeast  Level Estimated
Fri 03:07:00 PM 39.3724 -76.2946 56° Northeast  Level Estimated
Fri 03:08:00 PM 39.4117 -76.2196 56° Northeast  Level Estimated
Fri 03:09:00 PM 39.4509 -76.1445 56° Northeast  Level Estimated
Fri 03:10:00 PM 39.4900 -76.0694 56° Northeast  Level Estimated
Fri 03:11:00 PM 39.5291 -75.9941 56° Northeast  Level Estimated
Fri 03:12:00 PM 39.5682 -75.9188 56° Northeast  Level Estimated
Fri 03:13:00 PM 39.6072 -75.8434 56° Northeast  Level Estimated
Fri 03:14:00 PM 39.6462 -75.7679 56° Northeast  Level Estimated
Fri 03:15:00 PM 39.6851 -75.6923 56° Northeast  Level Estimated
Fri 03:16:00 PM 39.7240 -75.6166 56° Northeast  Level Estimated
Fri 03:17:00 PM 39.7628 -75.5408 56° Northeast  Level Estimated
Fri 03:18:00 PM 39.8016 -75.4650 56° Northeast  Level Estimated
Fri 03:19:00 PM 39.8403 -75.3890 56° Northeast  Level Estimated
Fri 03:20:00 PM 39.8790 -75.3130 56° Northeast  Level Estimated
Fri 03:21:00 PM 39.9176 -75.2369 56° Northeast  Level Estimated
Fri 03:22:00 PM 39.9562 -75.1607 57° Northeast  Level Estimated
Fri 03:23:00 PM 39.9947 -75.0844 57° Northeast  Level Estimated
Fri 03:24:00 PM 40.0332 -75.0081 57° Northeast  Level Estimated
Fri 03:25:00 PM 40.0716 -74.9316 57° Northeast  Level Estimated
Fri 03:26:00 PM 40.1100 -74.8551 57° Northeast  Level Estimated
Fri 03:27:00 PM 40.1483 -74.7785 57° Northeast  Level Estimated
Fri 03:28:00 PM 40.1866 -74.7018 57° Northeast  Level Estimated
Fri 03:29:00 PM 40.2248 -74.6250 57° Northeast  Level Estimated
Fri 03:30:00 PM 40.2630 -74.5481 57° Northeast  Level Estimated
Fri 03:31:00 PM 40.3011 -74.4711 57° Northeast  Level Estimated
Fri 03:32:00 PM 40.3392 -74.3941 57° Northeast  Level Estimated
Fri 03:33:00 PM 40.3772 -74.3169 57° Northeast  Level Estimated
Fri 03:34:00 PM 40.4152 -74.2397 57° Northeast  Level Estimated
Fri 03:35:00 PM 40.4531 -74.1624 57° Northeast  Level Estimated
Fri 03:36:00 PM 40.4909 -74.0850 57° Northeast  Level Estimated
Fri 03:37:00 PM 40.5288 -74.0075 57° Northeast  Level Estimated
Fri 03:38:00 PM 40.5665 -73.9299 57° Northeast  Level Estimated
Fri 03:39:00 PM 40.6042 -73.8523 57° Northeast  Level Estimated
Fri 03:40:00 PM 40.6398 -73.7789 57° Northeast  Level Estimated
Fri 03:41:00 PM 40.6398 -73.7789 North  Level Estimated
Fri 03:42:00 PM 40.6398 -73.7789 North  Level Estimated
Fri 03:43:00 PM 40.6398 -73.7789 North  Level Estimated

Login

Don't have an account? Register now (free) for customized features, flight alerts, and more!